sensor_id;sensor_type;location;lat;lon;timestamp;P1;durP1;ratioP1;P2;durP2;ratioP2
40981;SDS011;26708;50.304;19.028;2022-11-15T00:02:03;97.07;;;17.88;;
40981;SDS011;26708;50.304;19.028;2022-11-15T00:05:23;73.78;;;17.42;;
40981;SDS011;26708;50.304;19.028;2022-11-15T00:08:43;59.28;;;17.23;;
40981;SDS011;26708;50.304;19.028;2022-11-15T00:12:02;63.80;;;18.33;;
40981;SDS011;26708;50.304;19.028;2022-11-15T00:15:22;69.85;;;17.98;;
40981;SDS011;26708;50.304;19.028;2022-11-15T00:18:42;81.68;;;18.45;;
40981;SDS011;26708;50.304;19.028;2022-11-15T00:22:02;92.35;;;19.00;;
40981;SDS011;26708;50.304;19.028;2022-11-15T00:25:21;125.38;;;19.30;;
40981;SDS011;26708;50.304;19.028;2022-11-15T00:28:41;67.03;;;19.60;;
40981;SDS011;26708;50.304;19.028;2022-11-15T00:32:01;70.28;;;18.35;;
40981;SDS011;26708;50.304;19.028;2022-11-15T00:35:20;60.60;;;17.80;;
40981;SDS011;26708;50.304;19.028;2022-11-15T00:38:40;121.90;;;16.70;;
40981;SDS011;26708;50.304;19.028;2022-11-15T00:42:00;88.63;;;17.48;;
40981;SDS011;26708;50.304;19.028;2022-11-15T00:45:19;121.60;;;17.80;;
40981;SDS011;26708;50.304;19.028;2022-11-15T00:48:38;60.72;;;15.85;;
40981;SDS011;26708;50.304;19.028;2022-11-15T00:51:58;123.75;;;16.30;;
40981;SDS011;26708;50.304;19.028;2022-11-15T00:55:18;74.65;;;14.63;;
40981;SDS011;26708;50.304;19.028;2022-11-15T00:58:38;55.67;;;14.82;;
40981;SDS011;26708;50.304;19.028;2022-11-15T01:01:57;40.78;;;12.88;;
40981;SDS011;26708;50.304;19.028;2022-11-15T01:05:16;47.38;;;13.70;;
40981;SDS011;26708;50.304;19.028;2022-11-15T01:08:36;52.60;;;13.77;;
40981;SDS011;26708;50.304;19.028;2022-11-15T01:11:55;73.78;;;14.45;;
40981;SDS011;26708;50.304;19.028;2022-11-15T01:15:15;53.35;;;13.07;;
40981;SDS011;26708;50.304;19.028;2022-11-15T01:18:34;61.83;;;13.63;;
40981;SDS011;26708;50.304;19.028;2022-11-15T01:21:53;62.08;;;12.13;;
40981;SDS011;26708;50.304;19.028;2022-11-15T01:25:13;42.30;;;13.77;;
40981;SDS011;26708;50.304;19.028;2022-11-15T01:28:33;48.92;;;13.27;;
40981;SDS011;26708;50.304;19.028;2022-11-15T01:31:53;57.42;;;13.15;;
40981;SDS011;26708;50.304;19.028;2022-11-15T01:35:13;78.53;;;13.52;;
40981;SDS011;26708;50.304;19.028;2022-11-15T01:38:32;47.05;;;11.10;;
40981;SDS011;26708;50.304;19.028;2022-11-15T01:41:52;88.80;;;13.82;;
40981;SDS011;26708;50.304;19.028;2022-11-15T01:45:14;64.03;;;12.27;;
40981;SDS011;26708;50.304;19.028;2022-11-15T01:48:35;48.40;;;12.02;;
40981;SDS011;26708;50.304;19.028;2022-11-15T01:51:55;77.13;;;14.50;;
40981;SDS011;26708;50.304;19.028;2022-11-15T01:55:20;47.53;;;14.85;;
40981;SDS011;26708;50.304;19.028;2022-11-15T01:58:41;97.53;;;14.85;;
40981;SDS011;26708;50.304;19.028;2022-11-15T02:02:02;76.07;;;16.85;;
40981;SDS011;26708;50.304;19.028;2022-11-15T02:05:22;57.72;;;14.10;;
40981;SDS011;26708;50.304;19.028;2022-11-15T02:08:41;42.60;;;15.02;;
40981;SDS011;26708;50.304;19.028;2022-11-15T02:12:01;65.35;;;16.05;;
40981;SDS011;26708;50.304;19.028;2022-11-15T02:15:21;44.63;;;13.27;;
40981;SDS011;26708;50.304;19.028;2022-11-15T02:18:47;57.67;;;14.63;;
40981;SDS011;26708;50.304;19.028;2022-11-15T02:22:33;40.25;;;13.82;;
40981;SDS011;26708;50.304;19.028;2022-11-15T02:44:39;35.95;;;11.77;;
40981;SDS011;26708;50.304;19.028;2022-11-15T02:48:04;48.90;;;12.15;;
40981;SDS011;26708;50.304;19.028;2022-11-15T02:51:26;39.00;;;12.02;;
40981;SDS011;26708;50.304;19.028;2022-11-15T02:54:59;25.63;;;11.13;;
40981;SDS011;26708;50.304;19.028;2022-11-15T03:01:54;27.40;;;11.50;;
40981;SDS011;26708;50.304;19.028;2022-11-15T03:05:25;46.78;;;11.15;;
40981;SDS011;26708;50.304;19.028;2022-11-15T03:09:04;68.60;;;12.20;;
40981;SDS011;26708;50.304;19.028;2022-11-15T03:12:51;54.03;;;11.65;;
40981;SDS011;26708;50.304;19.028;2022-11-15T03:19:53;54.55;;;10.65;;
40981;SDS011;26708;50.304;19.028;2022-11-15T03:23:14;48.80;;;12.02;;
40981;SDS011;26708;50.304;19.028;2022-11-15T03:26:35;45.00;;;10.93;;
40981;SDS011;26708;50.304;19.028;2022-11-15T03:30:02;38.30;;;11.98;;
40981;SDS011;26708;50.304;19.028;2022-11-15T03:33:25;38.30;;;11.30;;
40981;SDS011;26708;50.304;19.028;2022-11-15T03:36:47;48.40;;;12.20;;
40981;SDS011;26708;50.304;19.028;2022-11-15T03:40:09;60.45;;;11.63;;
40981;SDS011;26708;50.304;19.028;2022-11-15T03:47:13;49.88;;;11.65;;
40981;SDS011;26708;50.304;19.028;2022-11-15T03:50:39;45.67;;;11.83;;
40981;SDS011;26708;50.304;19.028;2022-11-15T03:54:02;52.38;;;12.75;;
40981;SDS011;26708;50.304;19.028;2022-11-15T03:57:23;59.80;;;14.05;;
40981;SDS011;26708;50.304;19.028;2022-11-15T04:00:42;81.60;;;13.27;;
40981;SDS011;26708;50.304;19.028;2022-11-15T04:04:02;39.88;;;12.57;;
40981;SDS011;26708;50.304;19.028;2022-11-15T04:07:21;24.08;;;10.93;;
40981;SDS011;26708;50.304;19.028;2022-11-15T04:10:40;31.52;;;11.00;;
40981;SDS011;26708;50.304;19.028;2022-11-15T04:14:00;28.63;;;10.95;;
40981;SDS011;26708;50.304;19.028;2022-11-15T04:17:19;36.10;;;11.63;;
40981;SDS011;26708;50.304;19.028;2022-11-15T04:20:39;37.97;;;10.52;;
40981;SDS011;26708;50.304;19.028;2022-11-15T04:24:16;40.00;;;10.35;;
40981;SDS011;26708;50.304;19.028;2022-11-15T04:27:36;26.45;;;9.63;;
40981;SDS011;26708;50.304;19.028;2022-11-15T04:30:55;39.33;;;10.55;;
40981;SDS011;26708;50.304;19.028;2022-11-15T04:34:15;43.50;;;10.45;;
40981;SDS011;26708;50.304;19.028;2022-11-15T04:37:34;30.60;;;10.80;;
40981;SDS011;26708;50.304;19.028;2022-11-15T04:40:53;42.15;;;10.38;;
40981;SDS011;26708;50.304;19.028;2022-11-15T04:44:13;38.88;;;9.85;;
40981;SDS011;26708;50.304;19.028;2022-11-15T04:47:32;42.38;;;10.25;;
40981;SDS011;26708;50.304;19.028;2022-11-15T04:50:51;60.28;;;10.45;;
40981;SDS011;26708;50.304;19.028;2022-11-15T04:54:11;31.63;;;9.80;;
40981;SDS011;26708;50.304;19.028;2022-11-15T04:57:30;43.88;;;10.98;;
40981;SDS011;26708;50.304;19.028;2022-11-15T05:00:49;34.05;;;11.13;;
40981;SDS011;26708;50.304;19.028;2022-11-15T05:04:09;44.80;;;10.88;;
40981;SDS011;26708;50.304;19.028;2022-11-15T05:07:40;51.35;;;10.98;;
40981;SDS011;26708;50.304;19.028;2022-11-15T05:10:59;54.72;;;11.10;;
40981;SDS011;26708;50.304;19.028;2022-11-15T05:14:19;54.17;;;11.55;;
40981;SDS011;26708;50.304;19.028;2022-11-15T05:17:38;37.67;;;12.75;;
40981;SDS011;26708;50.304;19.028;2022-11-15T05:21:04;56.35;;;11.15;;
40981;SDS011;26708;50.304;19.028;2022-11-15T05:24:24;57.92;;;11.18;;
40981;SDS011;26708;50.304;19.028;2022-11-15T05:27:44;78.45;;;12.27;;
40981;SDS011;26708;50.304;19.028;2022-11-15T05:31:04;94.47;;;12.60;;
40981;SDS011;26708;50.304;19.028;2022-11-15T05:34:34;35.35;;;11.20;;
40981;SDS011;26708;50.304;19.028;2022-11-15T05:37:54;60.03;;;11.07;;
40981;SDS011;26708;50.304;19.028;2022-11-15T05:41:13;105.43;;;13.48;;
40981;SDS011;26708;50.304;19.028;2022-11-15T05:44:35;78.22;;;10.63;;
40981;SDS011;26708;50.304;19.028;2022-11-15T05:47:56;55.35;;;11.88;;
40981;SDS011;26708;50.304;19.028;2022-11-15T05:51:17;79.90;;;13.13;;
40981;SDS011;26708;50.304;19.028;2022-11-15T05:54:40;73.55;;;13.57;;
40981;SDS011;26708;50.304;19.028;2022-11-15T05:58:00;66.28;;;14.13;;
40981;SDS011;26708;50.304;19.028;2022-11-15T06:01:20;81.97;;;13.68;;
40981;SDS011;26708;50.304;19.028;2022-11-15T06:04:40;49.58;;;15.02;;
40981;SDS011;26708;50.304;19.028;2022-11-15T06:07:59;75.72;;;15.68;;
40981;SDS011;26708;50.304;19.028;2022-11-15T06:11:19;110.03;;;18.13;;
40981;SDS011;26708;50.304;19.028;2022-11-15T06:14:39;74.80;;;18.20;;
40981;SDS011;26708;50.304;19.028;2022-11-15T06:17:58;92.22;;;16.33;;
40981;SDS011;26708;50.304;19.028;2022-11-15T06:21:17;98.72;;;15.10;;
40981;SDS011;26708;50.304;19.028;2022-11-15T06:24:37;77.15;;;12.73;;
40981;SDS011;26708;50.304;19.028;2022-11-15T06:27:57;94.43;;;14.02;;
40981;SDS011;26708;50.304;19.028;2022-11-15T06:31:17;53.85;;;21.17;;
40981;SDS011;26708;50.304;19.028;2022-11-15T06:34:36;66.68;;;22.77;;
40981;SDS011;26708;50.304;19.028;2022-11-15T06:37:59;48.35;;;13.20;;
40981;SDS011;26708;50.304;19.028;2022-11-15T06:41:21;98.40;;;14.43;;
40981;SDS011;26708;50.304;19.028;2022-11-15T06:44:40;80.15;;;14.55;;
40981;SDS011;26708;50.304;19.028;2022-11-15T06:48:00;71.97;;;13.93;;
40981;SDS011;26708;50.304;19.028;2022-11-15T06:51:19;57.65;;;13.65;;
40981;SDS011;26708;50.304;19.028;2022-11-15T06:54:39;56.85;;;15.70;;
40981;SDS011;26708;50.304;19.028;2022-11-15T06:57:58;74.85;;;16.67;;
40981;SDS011;26708;50.304;19.028;2022-11-15T07:01:17;60.08;;;15.75;;
40981;SDS011;26708;50.304;19.028;2022-11-15T07:04:37;57.75;;;17.05;;
40981;SDS011;26708;50.304;19.028;2022-11-15T07:07:57;69.25;;;17.45;;
40981;SDS011;26708;50.304;19.028;2022-11-15T07:11:16;68.80;;;16.80;;
40981;SDS011;26708;50.304;19.028;2022-11-15T07:14:35;78.63;;;18.98;;
40981;SDS011;26708;50.304;19.028;2022-11-15T07:17:54;77.43;;;20.08;;
40981;SDS011;26708;50.304;19.028;2022-11-15T07:21:14;57.78;;;20.33;;
40981;SDS011;26708;50.304;19.028;2022-11-15T07:24:33;62.92;;;18.27;;
40981;SDS011;26708;50.304;19.028;2022-11-15T07:27:56;66.32;;;18.75;;
40981;SDS011;26708;50.304;19.028;2022-11-15T07:31:19;79.70;;;18.88;;
40981;SDS011;26708;50.304;19.028;2022-11-15T07:34:38;81.65;;;19.15;;
40981;SDS011;26708;50.304;19.028;2022-11-15T07:38:01;70.60;;;21.08;;
40981;SDS011;26708;50.304;19.028;2022-11-15T07:41:21;62.33;;;21.90;;
40981;SDS011;26708;50.304;19.028;2022-11-15T07:44:41;81.15;;;26.50;;
40981;SDS011;26708;50.304;19.028;2022-11-15T07:48:01;66.60;;;24.27;;
40981;SDS011;26708;50.304;19.028;2022-11-15T07:51:21;63.75;;;24.02;;
40981;SDS011;26708;50.304;19.028;2022-11-15T07:54:40;79.10;;;21.98;;
40981;SDS011;26708;50.304;19.028;2022-11-15T07:58:00;67.47;;;22.13;;
40981;SDS011;26708;50.304;19.028;2022-11-15T08:01:20;61.47;;;18.05;;
40981;SDS011;26708;50.304;19.028;2022-11-15T08:04:40;48.60;;;19.60;;
40981;SDS011;26708;50.304;19.028;2022-11-15T08:07:59;75.18;;;26.92;;
40981;SDS011;26708;50.304;19.028;2022-11-15T08:11:19;67.70;;;26.15;;
40981;SDS011;26708;50.304;19.028;2022-11-15T08:14:38;54.03;;;22.83;;
40981;SDS011;26708;50.304;19.028;2022-11-15T08:18:00;64.57;;;22.35;;
40981;SDS011;26708;50.304;19.028;2022-11-15T08:21:22;77.70;;;21.48;;
40981;SDS011;26708;50.304;19.028;2022-11-15T08:24:42;82.50;;;24.17;;
40981;SDS011;26708;50.304;19.028;2022-11-15T08:28:03;53.72;;;22.13;;
40981;SDS011;26708;50.304;19.028;2022-11-15T08:31:24;56.92;;;24.33;;
40981;SDS011;26708;50.304;19.028;2022-11-15T08:34:43;61.30;;;25.42;;
40981;SDS011;26708;50.304;19.028;2022-11-15T08:38:03;63.83;;;23.98;;
40981;SDS011;26708;50.304;19.028;2022-11-15T08:41:33;59.00;;;25.20;;
40981;SDS011;26708;50.304;19.028;2022-11-15T08:44:55;61.72;;;26.05;;
40981;SDS011;26708;50.304;19.028;2022-11-15T08:48:14;75.63;;;27.58;;
40981;SDS011;26708;50.304;19.028;2022-11-15T08:51:34;88.38;;;31.02;;
40981;SDS011;26708;50.304;19.028;2022-11-15T08:54:53;79.35;;;31.92;;
40981;SDS011;26708;50.304;19.028;2022-11-15T08:58:12;81.57;;;32.55;;
40981;SDS011;26708;50.304;19.028;2022-11-15T09:01:31;80.25;;;32.55;;
40981;SDS011;26708;50.304;19.028;2022-11-15T09:04:51;84.68;;;32.05;;
40981;SDS011;26708;50.304;19.028;2022-11-15T09:08:10;78.65;;;32.55;;
40981;SDS011;26708;50.304;19.028;2022-11-15T09:11:31;72.10;;;31.33;;
40981;SDS011;26708;50.304;19.028;2022-11-15T09:14:51;72.07;;;30.17;;
40981;SDS011;26708;50.304;19.028;2022-11-15T09:18:11;79.15;;;33.65;;
40981;SDS011;26708;50.304;19.028;2022-11-15T09:21:31;67.57;;;30.92;;
40981;SDS011;26708;50.304;19.028;2022-11-15T09:24:52;61.30;;;28.83;;
40981;SDS011;26708;50.304;19.028;2022-11-15T09:28:12;71.85;;;29.85;;
40981;SDS011;26708;50.304;19.028;2022-11-15T09:31:32;71.93;;;30.52;;
40981;SDS011;26708;50.304;19.028;2022-11-15T09:34:51;70.25;;;32.40;;
40981;SDS011;26708;50.304;19.028;2022-11-15T09:38:11;63.08;;;27.95;;
40981;SDS011;26708;50.304;19.028;2022-11-15T09:45:26;63.50;;;30.83;;
40981;SDS011;26708;50.304;19.028;2022-11-15T09:48:54;42.53;;;22.33;;
40981;SDS011;26708;50.304;19.028;2022-11-15T09:52:26;57.08;;;26.25;;
40981;SDS011;26708;50.304;19.028;2022-11-15T09:55:33;57.53;;;25.13;;
40981;SDS011;26708;50.304;19.028;2022-11-15T10:05:28;72.78;;;33.28;;
40981;SDS011;26708;50.304;19.028;2022-11-15T10:11:55;67.05;;;30.55;;
40981;SDS011;26708;50.304;19.028;2022-11-15T10:15:03;67.43;;;27.63;;
40981;SDS011;26708;50.304;19.028;2022-11-15T10:18:16;61.10;;;27.80;;
40981;SDS011;26708;50.304;19.028;2022-11-15T10:21:24;61.85;;;25.98;;
40981;SDS011;26708;50.304;19.028;2022-11-15T10:24:34;55.80;;;23.75;;
40981;SDS011;26708;50.304;19.028;2022-11-15T10:27:40;40.20;;;21.75;;
40981;SDS011;26708;50.304;19.028;2022-11-15T10:30:45;49.80;;;22.40;;
40981;SDS011;26708;50.304;19.028;2022-11-15T10:33:47;54.28;;;23.58;;
40981;SDS011;26708;50.304;19.028;2022-11-15T10:36:58;80.25;;;35.13;;
40981;SDS011;26708;50.304;19.028;2022-11-15T10:46:20;45.53;;;21.00;;
40981;SDS011;26708;50.304;19.028;2022-11-15T10:49:23;48.47;;;22.08;;
40981;SDS011;26708;50.304;19.028;2022-11-15T10:52:26;30.33;;;15.18;;
40981;SDS011;26708;50.304;19.028;2022-11-15T10:55:32;30.52;;;15.50;;
40981;SDS011;26708;50.304;19.028;2022-11-15T10:58:39;23.85;;;13.23;;
40981;SDS011;26708;50.304;19.028;2022-11-15T11:01:45;20.30;;;12.05;;
40981;SDS011;26708;50.304;19.028;2022-11-15T11:04:51;20.13;;;12.18;;
40981;SDS011;26708;50.304;19.028;2022-11-15T11:07:59;24.40;;;12.95;;
40981;SDS011;26708;50.304;19.028;2022-11-15T11:11:03;26.02;;;13.50;;
40981;SDS011;26708;50.304;19.028;2022-11-15T11:14:12;23.77;;;13.40;;
40981;SDS011;26708;50.304;19.028;2022-11-15T11:20:53;27.70;;;15.45;;
40981;SDS011;26708;50.304;19.028;2022-11-15T11:34:17;31.42;;;15.45;;
40981;SDS011;26708;50.304;19.028;2022-11-15T11:44:57;36.00;;;16.75;;
40981;SDS011;26708;50.304;19.028;2022-11-15T11:48:12;41.40;;;19.42;;
40981;SDS011;26708;50.304;19.028;2022-11-15T11:55:21;26.85;;;13.50;;
40981;SDS011;26708;50.304;19.028;2022-11-15T11:58:32;24.42;;;13.35;;
40981;SDS011;26708;50.304;19.028;2022-11-15T12:01:37;32.78;;;15.68;;
40981;SDS011;26708;50.304;19.028;2022-11-15T12:04:44;28.10;;;15.00;;
40981;SDS011;26708;50.304;19.028;2022-11-15T12:07:50;24.63;;;14.15;;
40981;SDS011;26708;50.304;19.028;2022-11-15T12:14:11;26.30;;;12.15;;
40981;SDS011;26708;50.304;19.028;2022-11-15T12:17:26;27.98;;;13.55;;
40981;SDS011;26708;50.304;19.028;2022-11-15T12:20:37;26.42;;;12.38;;
40981;SDS011;26708;50.304;19.028;2022-11-15T12:24:17;31.52;;;16.02;;
40981;SDS011;26708;50.304;19.028;2022-11-15T12:30:40;25.25;;;12.60;;
40981;SDS011;26708;50.304;19.028;2022-11-15T12:33:46;26.25;;;12.68;;
40981;SDS011;26708;50.304;19.028;2022-11-15T12:36:49;33.00;;;15.10;;
40981;SDS011;26708;50.304;19.028;2022-11-15T12:52:30;27.92;;;13.52;;
40981;SDS011;26708;50.304;19.028;2022-11-15T12:55:32;36.90;;;17.35;;
40981;SDS011;26708;50.304;19.028;2022-11-15T12:58:43;46.60;;;21.65;;
40981;SDS011;26708;50.304;19.028;2022-11-15T13:01:57;32.17;;;15.10;;
40981;SDS011;26708;50.304;19.028;2022-11-15T13:08:47;46.10;;;23.50;;
40981;SDS011;26708;50.304;19.028;2022-11-15T13:11:50;37.38;;;18.20;;
40981;SDS011;26708;50.304;19.028;2022-11-15T13:17:53;29.58;;;15.75;;
40981;SDS011;26708;50.304;19.028;2022-11-15T13:20:55;25.52;;;13.38;;
40981;SDS011;26708;50.304;19.028;2022-11-15T13:23:56;23.50;;;13.15;;
40981;SDS011;26708;50.304;19.028;2022-11-15T13:26:57;29.60;;;15.70;;
40981;SDS011;26708;50.304;19.028;2022-11-15T13:29:58;34.92;;;15.27;;
40981;SDS011;26708;50.304;19.028;2022-11-15T13:33:00;36.63;;;16.70;;
40981;SDS011;26708;50.304;19.028;2022-11-15T13:36:20;32.60;;;17.83;;
40981;SDS011;26708;50.304;19.028;2022-11-15T13:39:27;40.75;;;19.58;;
40981;SDS011;26708;50.304;19.028;2022-11-15T13:42:36;38.35;;;18.30;;
40981;SDS011;26708;50.304;19.028;2022-11-15T13:45:37;64.10;;;25.80;;
40981;SDS011;26708;50.304;19.028;2022-11-15T13:48:39;42.63;;;21.85;;
40981;SDS011;26708;50.304;19.028;2022-11-15T13:54:53;74.40;;;21.30;;
40981;SDS011;26708;50.304;19.028;2022-11-15T13:58:00;46.67;;;21.85;;
40981;SDS011;26708;50.304;19.028;2022-11-15T14:01:06;51.42;;;24.02;;
40981;SDS011;26708;50.304;19.028;2022-11-15T14:04:14;84.15;;;55.28;;
40981;SDS011;26708;50.304;19.028;2022-11-15T14:07:21;47.08;;;23.63;;
40981;SDS011;26708;50.304;19.028;2022-11-15T14:10:34;55.67;;;24.17;;
40981;SDS011;26708;50.304;19.028;2022-11-15T14:13:36;50.38;;;23.98;;
40981;SDS011;26708;50.304;19.028;2022-11-15T14:16:38;108.85;;;40.38;;
40981;SDS011;26708;50.304;19.028;2022-11-15T14:19:41;77.75;;;29.60;;
40981;SDS011;26708;50.304;19.028;2022-11-15T14:22:51;51.85;;;22.80;;
40981;SDS011;26708;50.304;19.028;2022-11-15T14:25:56;37.63;;;19.58;;
40981;SDS011;26708;50.304;19.028;2022-11-15T14:32:26;52.72;;;22.40;;
40981;SDS011;26708;50.304;19.028;2022-11-15T14:35:28;44.92;;;23.10;;
40981;SDS011;26708;50.304;19.028;2022-11-15T14:38:29;44.03;;;24.50;;
40981;SDS011;26708;50.304;19.028;2022-11-15T14:41:33;49.90;;;24.63;;
40981;SDS011;26708;50.304;19.028;2022-11-15T14:44:38;43.13;;;24.52;;
40981;SDS011;26708;50.304;19.028;2022-11-15T14:47:38;53.00;;;26.25;;
40981;SDS011;26708;50.304;19.028;2022-11-15T14:50:39;53.95;;;27.02;;
40981;SDS011;26708;50.304;19.028;2022-11-15T14:53:40;54.97;;;25.10;;
40981;SDS011;26708;50.304;19.028;2022-11-15T14:56:42;48.00;;;24.20;;
40981;SDS011;26708;50.304;19.028;2022-11-15T14:59:43;51.28;;;23.80;;
40981;SDS011;26708;50.304;19.028;2022-11-15T15:02:44;39.95;;;20.52;;
40981;SDS011;26708;50.304;19.028;2022-11-15T15:05:46;42.03;;;20.85;;
40981;SDS011;26708;50.304;19.028;2022-11-15T15:08:47;43.75;;;22.85;;
40981;SDS011;26708;50.304;19.028;2022-11-15T15:11:50;43.17;;;22.55;;
40981;SDS011;26708;50.304;19.028;2022-11-15T15:14:51;42.35;;;21.10;;
40981;SDS011;26708;50.304;19.028;2022-11-15T15:17:52;42.15;;;21.77;;
40981;SDS011;26708;50.304;19.028;2022-11-15T15:20:54;53.30;;;23.85;;
40981;SDS011;26708;50.304;19.028;2022-11-15T15:23:57;48.33;;;24.77;;
40981;SDS011;26708;50.304;19.028;2022-11-15T15:26:58;47.78;;;28.05;;
40981;SDS011;26708;50.304;19.028;2022-11-15T15:29:59;52.95;;;27.45;;
40981;SDS011;26708;50.304;19.028;2022-11-15T15:32:59;53.67;;;25.48;;
40981;SDS011;26708;50.304;19.028;2022-11-15T15:36:00;57.10;;;29.25;;
40981;SDS011;26708;50.304;19.028;2022-11-15T15:39:01;66.28;;;35.60;;
40981;SDS011;26708;50.304;19.028;2022-11-15T15:42:02;66.47;;;31.98;;
40981;SDS011;26708;50.304;19.028;2022-11-15T15:45:04;73.90;;;33.85;;
40981;SDS011;26708;50.304;19.028;2022-11-15T15:48:05;62.70;;;31.60;;
40981;SDS011;26708;50.304;19.028;2022-11-15T15:51:06;63.75;;;30.63;;
40981;SDS011;26708;50.304;19.028;2022-11-15T15:54:07;63.35;;;30.42;;
40981;SDS011;26708;50.304;19.028;2022-11-15T15:57:08;70.38;;;34.20;;
40981;SDS011;26708;50.304;19.028;2022-11-15T16:00:12;80.40;;;39.50;;
40981;SDS011;26708;50.304;19.028;2022-11-15T16:03:14;77.07;;;36.78;;
40981;SDS011;26708;50.304;19.028;2022-11-15T16:06:25;72.28;;;36.83;;
